Time;durP1;ratioP1;P1;durP2;ratioP2;P2;SDS_P1;SDS_P2;PMS_P1;PMS_P2;Temp;Humidity;BMP_temperature;BMP_pressure;BME280_temperature;BME280_humidity;BME280_pressure;Samples;Min_cycle;Max_cycle;Signal;HPM_P1;HPM_P2
2021/01/19 00:05:36;;;;;;;26.83;12.07;;;3.80;67.80;;;;;;6299426;28;20032;-76
2021/01/19 00:08:37;;;;;;;22.88;9.73;;;3.90;68.10;;;;;;6296139;28;20032;-76
2021/01/19 00:11:38;;;;;;;24.30;10.88;;;3.80;68.00;;;;;;6312758;28;20071;-76
2021/01/19 00:14:39;;;;;;;35.95;9.77;;;3.80;68.00;;;;;;6295051;28;20496;-76
2021/01/19 00:17:41;;;;;;;28.40;10.55;;;3.80;68.00;;;;;;6287947;28;20032;-75
2021/01/19 00:20:42;;;;;;;27.52;9.75;;;3.80;68.00;;;;;;6295442;28;20036;-75
2021/01/19 00:23:43;;;;;;;27.42;9.65;;;3.80;68.00;;;;;;6311441;28;20453;-76
2021/01/19 00:26:44;;;;;;;34.92;10.93;;;3.80;67.70;;;;;;6329418;28;20032;-76
2021/01/19 00:29:45;;;;;;;27.35;10.18;;;3.70;67.60;;;;;;6294822;28;20036;-76
2021/01/19 00:32:46;;;;;;;32.33;10.23;;;3.70;67.80;;;;;;6295300;28;20374;-76
2021/01/19 00:35:47;;;;;;;36.45;12.07;;;3.70;67.70;;;;;;6296581;28;20131;-75
2021/01/19 00:38:48;;;;;;;25.17;10.10;;;3.70;67.90;;;;;;6313981;28;20452;-75
2021/01/19 00:41:49;;;;;;;32.60;11.38;;;3.70;68.00;;;;;;6305605;28;20047;-75
2021/01/19 00:44:50;;;;;;;29.85;9.63;;;3.70;68.00;;;;;;6295132;28;20050;-76
2021/01/19 00:47:50;;;;;;;30.95;10.05;;;3.70;67.80;;;;;;6295054;28;20032;-76
2021/01/19 00:50:51;;;;;;;29.15;11.85;;;3.70;67.80;;;;;;6296342;28;20031;-76
2021/01/19 00:53:53;;;;;;;27.60;10.55;;;3.70;67.90;;;;;;6300435;28;20137;-75
2021/01/19 00:56:53;;;;;;;28.05;10.18;;;3.80;67.90;;;;;;6294050;28;20041;-76
2021/01/19 00:59:56;;;;;;;26.60;8.07;;;3.70;67.70;;;;;;6311759;28;20518;-75
2021/01/19 01:02:57;;;;;;;28.52;10.88;;;3.70;67.70;;;;;;6328789;28;20041;-75
2021/01/19 01:05:58;;;;;;;38.90;10.52;;;3.70;67.90;;;;;;6311314;28;20539;-76
2021/01/19 01:08:59;;;;;;;22.80;9.00;;;3.70;68.00;;;;;;6277524;28;20040;-76
2021/01/19 01:12:00;;;;;;;19.88;8.63;;;3.70;68.10;;;;;;6295475;28;20481;-75
2021/01/19 01:15:03;;;;;;;23.10;9.25;;;3.60;67.90;;;;;;6328191;28;20097;-77
2021/01/19 01:18:11;;;;;;;33.90;11.25;;;3.60;68.60;;;;;;6294639;28;20045;-77
2021/01/19 01:21:12;;;;;;;17.08;8.25;;;3.60;67.90;;;;;;6294455;28;20033;-74
2021/01/19 01:24:13;;;;;;;26.95;8.25;;;3.50;67.90;;;;;;6294993;28;20037;-75
2021/01/19 01:27:14;;;;;;;27.85;8.52;;;3.50;68.10;;;;;;6295107;28;20339;-76
2021/01/19 01:30:16;;;;;;;27.38;8.43;;;3.50;68.20;;;;;;6297076;28;20064;-75
2021/01/19 01:33:17;;;;;;;26.23;11.73;;;3.50;68.10;;;;;;6294700;28;20102;-75
2021/01/19 01:36:18;;;;;;;18.70;8.07;;;3.50;67.90;;;;;;6310518;28;20029;-74
2021/01/19 01:39:19;;;;;;;18.80;7.78;;;3.40;67.70;;;;;;6293411;28;20431;-75
2021/01/19 01:42:21;;;;;;;28.08;9.02;;;3.40;68.70;;;;;;6328240;28;20043;-75
2021/01/19 01:45:26;;;;;;;16.42;7.43;;;3.40;68.20;;;;;;6326225;28;20448;-75
2021/01/19 01:48:28;;;;;;;14.65;6.30;;;3.40;68.30;;;;;;6293985;28;20365;-76
2021/01/19 01:51:29;;;;;;;22.42;7.20;;;3.40;68.90;;;;;;6294647;28;20036;-75
2021/01/19 01:54:30;;;;;;;12.23;6.22;;;3.30;68.10;;;;;;6295293;28;20115;-75
2021/01/19 01:57:32;;;;;;;20.55;6.68;;;3.30;68.30;;;;;;6295680;28;20032;-75
2021/01/19 02:00:34;;;;;;;23.85;8.10;;;3.20;68.30;;;;;;6305311;28;20047;-75
2021/01/19 02:03:35;;;;;;;17.10;7.53;;;3.20;68.40;;;;;;6300307;28;20141;-76
2021/01/19 02:06:36;;;;;;;24.90;7.82;;;3.30;68.60;;;;;;6280810;28;20029;-76
2021/01/19 02:09:46;;;;;;;16.67;6.60;;;3.30;68.70;;;;;;6278180;28;20040;-76
2021/01/19 02:13:32;;;;;;;23.70;7.85;;;3.20;68.60;;;;;;6252239;28;20367;-75
2021/01/19 02:16:51;;;;;;;10.05;5.43;;;3.30;68.60;;;;;;6245320;28;20041;-75
2021/01/19 02:19:52;;;;;;;15.93;6.07;;;3.20;68.50;;;;;;6272465;28;20041;-75
2021/01/19 02:23:15;;;;;;;13.80;6.22;;;3.20;68.50;;;;;;6273709;28;20033;-75
2021/01/19 02:26:38;;;;;;;19.42;7.03;;;3.10;68.60;;;;;;6273850;28;20079;-75
2021/01/19 02:30:05;;;;;;;19.05;6.75;;;3.10;68.90;;;;;;6263308;28;20029;-75
2021/01/19 02:33:29;;;;;;;21.50;7.35;;;3.10;69.10;;;;;;6278778;28;20491;-75
2021/01/19 02:36:53;;;;;;;21.23;7.20;;;3.00;68.90;;;;;;6308350;28;20425;-75
2021/01/19 02:40:07;;;;;;;20.75;7.55;;;3.10;68.90;;;;;;6272703;28;20029;-77
2021/01/19 02:43:20;;;;;;;25.25;8.18;;;3.10;68.80;;;;;;6277391;28;20515;-75
2021/01/19 02:46:33;;;;;;;19.95;5.90;;;3.10;68.50;;;;;;6273076;28;20029;-75
2021/01/19 02:49:34;;;;;;;24.92;8.73;;;3.00;68.50;;;;;;6275158;28;20033;-75
2021/01/19 02:52:37;;;;;;;23.60;7.78;;;3.00;68.60;;;;;;6273481;28;20040;-75
2021/01/19 02:55:40;;;;;;;17.55;6.43;;;3.00;68.60;;;;;;6274139;28;20493;-75
2021/01/19 02:59:08;;;;;;;17.33;8.52;;;2.90;68.60;;;;;;6265801;28;20029;-76
2021/01/19 03:02:19;;;;;;;22.40;6.75;;;2.90;68.60;;;;;;6290935;28;20106;-75
2021/01/19 03:05:23;;;;;;;18.42;6.43;;;2.90;68.60;;;;;;6272280;28;20037;-76
2021/01/19 03:08:25;;;;;;;19.05;6.97;;;2.90;68.50;;;;;;6272538;28;20044;-76
2021/01/19 03:11:27;;;;;;;26.48;7.65;;;2.90;68.60;;;;;;6272015;28;20080;-76
2021/01/19 03:14:29;;;;;;;29.95;8.85;;;2.90;68.60;;;;;;6273728;28;20035;-75
2021/01/19 03:17:30;;;;;;;14.75;5.95;;;3.00;68.50;;;;;;6283454;28;20044;-76
2021/01/19 03:20:33;;;;;;;27.55;8.90;;;3.00;68.40;;;;;;6271917;28;20040;-76
2021/01/19 03:23:35;;;;;;;19.73;7.95;;;3.00;68.30;;;;;;6272228;28;20547;-75
2021/01/19 03:26:36;;;;;;;25.02;8.10;;;3.00;68.20;;;;;;6273405;28;20037;-76
2021/01/19 03:29:37;;;;;;;19.55;8.10;;;3.00;68.20;;;;;;6254096;28;20065;-76
2021/01/19 03:37:00;;;;;;;;;;;2.90;68.20;;;;;;6271974;28;20040;-76
2021/01/19 03:40:06;;;;;;;14.20;5.88;;;2.80;68.20;;;;;;6296477;28;19995;-76
2021/01/19 03:43:07;;;;;;;16.80;7.13;;;2.70;68.30;;;;;;6294233;28;20028;-76
2021/01/19 03:46:08;;;;;;;18.52;7.53;;;2.70;68.60;;;;;;6294419;28;20041;-76
2021/01/19 03:49:09;;;;;;;17.90;6.25;;;2.60;68.60;;;;;;6293928;28;20040;-76
2021/01/19 03:52:20;;;;;;;15.27;6.15;;;2.60;68.70;;;;;;6295674;28;20032;-77
2021/01/19 03:55:21;;;;;;;13.40;5.50;;;2.60;68.70;;;;;;6296131;28;20469;-76
2021/01/19 03:58:22;;;;;;;20.58;7.13;;;2.70;68.90;;;;;;6330615;27;20040;-76
2021/01/19 04:01:23;;;;;;;13.27;5.60;;;2.70;68.80;;;;;;6297055;28;20033;-76
2021/01/19 04:04:24;;;;;;;17.17;5.85;;;2.70;68.80;;;;;;6329894;28;20484;-76
2021/01/19 04:07:25;;;;;;;14.65;6.00;;;2.70;68.60;;;;;;6296342;28;20056;-76
2021/01/19 04:10:26;;;;;;;22.38;5.80;;;2.60;68.50;;;;;;6296282;28;20032;-77
2021/01/19 04:13:27;;;;;;;17.08;6.97;;;2.60;68.60;;;;;;6296530;28;20420;-74
2021/01/19 04:16:28;;;;;;;13.73;5.65;;;2.50;68.80;;;;;;6296657;28;20025;-75
2021/01/19 04:19:29;;;;;;;12.68;6.60;;;2.60;69.10;;;;;;6295527;28;20357;-75
2021/01/19 04:22:30;;;;;;;16.88;5.47;;;2.60;69.20;;;;;;6295764;28;20040;-77
2021/01/19 04:25:31;;;;;;;18.10;7.18;;;2.60;69.10;;;;;;6329044;28;20029;-75
2021/01/19 04:28:32;;;;;;;15.93;5.95;;;2.70;69.00;;;;;;6296992;28;20028;-75
2021/01/19 04:31:33;;;;;;;14.65;6.47;;;2.60;68.80;;;;;;6296995;28;20474;-76
2021/01/19 04:34:34;;;;;;;14.55;6.93;;;2.60;68.80;;;;;;6296619;28;20043;-75
2021/01/19 04:37:35;;;;;;;7.68;4.13;;;2.60;68.80;;;;;;6296491;28;20458;-74
2021/01/19 04:40:37;;;;;;;12.95;6.10;;;2.60;68.70;;;;;;6295862;28;20028;-75
2021/01/19 04:43:38;;;;;;;10.95;4.68;;;2.60;68.60;;;;;;6294823;28;20050;-75
2021/01/19 04:46:40;;;;;;;14.55;5.47;;;2.60;68.80;;;;;;6296425;28;20032;-75
2021/01/19 04:49:45;;;;;;;14.35;5.25;;;2.50;68.90;;;;;;6293756;28;20035;-76
2021/01/19 04:52:46;;;;;;;15.27;4.32;;;2.60;69.00;;;;;;6297790;28;20123;-76
2021/01/19 04:56:02;;;;;;;13.75;3.10;;;2.70;68.90;;;;;;6279867;28;20067;-75
2021/01/19 04:59:13;;;;;;;9.88;3.55;;;2.80;68.80;;;;;;6266300;28;20033;-75
2021/01/19 05:02:35;;;;;;;9.80;4.78;;;2.90;68.60;;;;;;6313044;28;20039;-75
2021/01/19 05:05:36;;;;;;;9.40;3.78;;;3.00;68.20;;;;;;6279353;28;20059;-75
2021/01/19 05:08:37;;;;;;;11.73;4.18;;;3.20;67.90;;;;;;6313144;28;20036;-75
2021/01/19 05:12:02;;;;;;;13.40;4.18;;;3.30;67.30;;;;;;6293043;28;20077;-76
2021/01/19 05:15:05;;;;;;;12.57;4.75;;;3.40;66.80;;;;;;6293195;28;20040;-75
2021/01/19 05:18:12;;;;;;;22.83;4.82;;;3.40;66.40;;;;;;6299228;28;20124;-77
2021/01/19 05:21:14;;;;;;;14.73;5.95;;;3.30;66.10;;;;;;6286302;28;20040;-75
2021/01/19 05:24:16;;;;;;;16.83;5.25;;;3.30;66.10;;;;;;6333343;28;20043;-75
2021/01/19 05:27:17;;;;;;;11.32;5.07;;;3.30;66.10;;;;;;6310137;28;20409;-77
2021/01/19 05:30:21;;;;;;;18.27;5.35;;;3.30;66.10;;;;;;6308305;28;20037;-75
2021/01/19 05:33:23;;;;;;;17.50;6.40;;;3.30;65.90;;;;;;6320758;28;20045;-76
2021/01/19 05:36:25;;;;;;;13.75;5.10;;;3.20;65.60;;;;;;6321575;28;20048;-76
2021/01/19 05:39:26;;;;;;;12.55;6.20;;;3.20;65.70;;;;;;6333047;28;20090;-75
2021/01/19 05:42:27;;;;;;;14.73;5.05;;;3.10;65.70;;;;;;6329768;28;20033;-76
2021/01/19 05:45:28;;;;;;;12.75;5.20;;;3.00;65.90;;;;;;6297732;28;20035;-75
2021/01/19 05:48:39;;;;;;;10.88;4.72;;;2.90;65.90;;;;;;6295908;28;20036;-76
2021/01/19 05:51:42;;;;;;;14.18;6.30;;;2.90;66.10;;;;;;6295673;28;20032;-76
2021/01/19 05:54:48;;;;;;;17.27;5.25;;;2.90;66.40;;;;;;6298995;28;20047;-78
2021/01/19 05:57:51;;;;;;;15.00;5.47;;;2.80;66.10;;;;;;6305101;28;20127;-77
2021/01/19 06:00:52;;;;;;;11.55;5.38;;;2.70;66.10;;;;;;6305059;28;20038;-79
2021/01/19 06:03:57;;;;;;;12.85;4.43;;;2.70;66.20;;;;;;6308331;28;20104;-78
2021/01/19 06:06:59;;;;;;;12.98;4.75;;;2.60;66.50;;;;;;6301724;28;20047;-75
2021/01/19 06:10:11;;;;;;;12.13;5.43;;;2.60;66.70;;;;;;6293081;28;20036;-78
2021/01/19 06:13:19;;;;;;;14.52;4.93;;;2.60;66.90;;;;;;6299888;28;20033;-77
2021/01/19 06:16:24;;;;;;;11.55;5.10;;;2.60;66.90;;;;;;6333818;28;20106;-77
2021/01/19 06:19:30;;;;;;;16.45;5.78;;;2.60;66.70;;;;;;6301447;28;20047;-75
2021/01/19 06:22:34;;;;;;;11.60;4.40;;;2.60;66.80;;;;;;6291791;28;20387;-76
2021/01/19 06:25:35;;;;;;;13.60;5.32;;;2.50;66.80;;;;;;6312964;28;20032;-75
2021/01/19 06:28:43;;;;;;;13.43;4.90;;;2.50;67.00;;;;;;6274076;28;20033;-75
2021/01/19 06:31:46;;;;;;;14.88;4.80;;;2.50;67.10;;;;;;6295100;28;20036;-78
2021/01/19 06:34:48;;;;;;;13.93;4.32;;;2.50;67.00;;;;;;6298949;28;20033;-78
2021/01/19 06:37:52;;;;;;;10.73;4.55;;;2.60;67.20;;;;;;6299047;28;20090;-77
2021/01/19 06:40:58;;;;;;;7.47;4.28;;;2.60;67.30;;;;;;6298085;28;20086;-75
2021/01/19 06:44:05;;;;;;;12.43;4.93;;;2.70;67.20;;;;;;6298614;28;20127;-77
2021/01/19 06:47:07;;;;;;;11.30;4.40;;;2.80;67.20;;;;;;6299199;28;20926;-76
2021/01/19 06:50:09;;;;;;;9.30;5.18;;;2.80;67.10;;;;;;6298901;28;20033;-76
2021/01/19 06:53:43;;;;;;;9.23;4.78;;;2.90;66.80;;;;;;6297352;28;20056;-75
2021/01/19 06:56:58;;;;;;;12.98;5.25;;;2.90;66.60;;;;;;6273722;28;20363;-74
2021/01/19 07:00:18;;;;;;;9.48;4.68;;;3.00;66.60;;;;;;6274749;28;20044;-75
2021/01/19 07:03:23;;;;;;;14.32;6.05;;;3.00;66.40;;;;;;6274129;28;20504;-75
2021/01/19 07:06:44;;;;;;;20.17;6.20;;;3.00;66.10;;;;;;6273865;28;20501;-76
2021/01/19 07:09:51;;;;;;;14.57;6.03;;;3.00;66.10;;;;;;6263694;28;20054;-75
2021/01/19 07:12:55;;;;;;;16.63;6.00;;;3.00;66.00;;;;;;6283150;28;20041;-74
2021/01/19 07:16:03;;;;;;;14.10;6.32;;;3.00;65.90;;;;;;6273587;28;20040;-75
2021/01/19 07:19:59;;;;;;;15.93;5.82;;;3.00;66.70;;;;;;6272812;28;20367;-75
2021/01/19 07:23:06;;;;;;;10.02;4.40;;;3.00;65.60;;;;;;6197968;28;20081;-75
2021/01/19 07:26:07;;;;;;;11.38;4.55;;;2.90;65.20;;;;;;6182284;28;20050;-76
2021/01/19 07:29:08;;;;;;;16.02;6.75;;;2.90;65.10;;;;;;6182223;28;20081;-76
2021/01/19 07:32:13;;;;;;;15.73;6.05;;;2.90;65.20;;;;;;6156633;28;20109;-75
2021/01/19 07:35:14;;;;;;;10.98;5.15;;;2.80;65.30;;;;;;6182227;28;20442;-76
2021/01/19 07:38:22;;;;;;;12.77;5.35;;;2.80;65.40;;;;;;6165765;28;20034;-76
2021/01/19 07:41:32;;;;;;;16.33;5.57;;;2.70;65.40;;;;;;6191019;28;20042;-76
2021/01/19 07:44:33;;;;;;;11.98;5.47;;;2.80;65.60;;;;;;6183401;28;20372;-77
2021/01/19 07:47:36;;;;;;;12.55;5.10;;;2.80;65.50;;;;;;6181428;28;20081;-76
2021/01/19 07:50:44;;;;;;;12.73;5.38;;;2.80;65.40;;;;;;6196126;28;20045;-76
2021/01/19 07:53:55;;;;;;;12.60;5.40;;;2.80;65.50;;;;;;6181046;28;20054;-76
2021/01/19 07:57:16;;;;;;;11.55;4.63;;;2.80;65.40;;;;;;6247130;28;20051;-76
2021/01/19 08:00:23;;;;;;;8.20;5.03;;;2.90;66.10;;;;;;6330408;28;20047;-75
2021/01/19 08:03:31;;;;;;;15.20;5.15;;;2.90;65.20;;;;;;6331174;28;20445;-76
2021/01/19 08:06:32;;;;;;;7.97;4.32;;;2.90;65.40;;;;;;6330598;28;20127;-76
2021/01/19 08:09:35;;;;;;;8.90;4.85;;;2.90;65.50;;;;;;6312955;28;20035;-76
2021/01/19 08:12:36;;;;;;;12.10;5.07;;;3.00;65.40;;;;;;6296843;28;20028;-76
2021/01/19 08:15:37;;;;;;;9.07;4.80;;;3.00;65.20;;;;;;6280042;28;20056;-77
2021/01/19 08:18:40;;;;;;;13.13;6.32;;;3.10;65.20;;;;;;6273823;28;20041;-75
2021/01/19 08:21:54;;;;;;;60.22;27.75;;;3.10;65.20;;;;;;6273155;28;20045;-74
2021/01/19 08:25:01;;;;;;;31.95;10.93;;;3.20;65.30;;;;;;6296554;28;20064;-76
2021/01/19 08:28:02;;;;;;;191.30;45.95;;;3.30;65.30;;;;;;6301453;28;20032;-76
2021/01/19 08:31:15;;;;;;;40.95;19.27;;;3.30;65.10;;;;;;6297614;28;20462;-76
2021/01/19 08:34:17;;;;;;;319.42;124.80;;;3.40;65.20;;;;;;6296212;28;20048;-76
2021/01/19 08:37:19;;;;;;;15.93;8.10;;;3.50;65.10;;;;;;6312032;28;20029;-77
2021/01/19 08:40:31;;;;;;;21.20;5.80;;;3.50;64.80;;;;;;6308906;28;20454;-75
2021/01/19 08:43:32;;;;;;;14.13;6.43;;;3.60;64.80;;;;;;6297547;28;20390;-76
2021/01/19 08:46:34;;;;;;;42.67;9.63;;;3.60;64.80;;;;;;6330019;28;20036;-76
2021/01/19 08:49:35;;;;;;;12.55;4.80;;;3.70;64.60;;;;;;6295810;28;20028;-76
2021/01/19 08:52:36;;;;;;;20.23;6.43;;;3.80;64.50;;;;;;6312535;28;20450;-76
2021/01/19 08:55:38;;;;;;;21.30;5.22;;;3.80;64.30;;;;;;6328838;28;20048;-78
2021/01/19 08:58:40;;;;;;;14.27;5.38;;;3.90;64.10;;;;;;6328686;28;20036;-76
2021/01/19 09:01:52;;;;;;;18.83;5.55;;;4.00;64.10;;;;;;6296272;28;20115;-77
2021/01/19 09:04:53;;;;;;;16.90;5.97;;;4.10;63.90;;;;;;6272890;28;20044;-77
2021/01/19 09:07:55;;;;;;;18.52;7.32;;;4.20;64.30;;;;;;6270459;28;20392;-75
2021/01/19 09:11:05;;;;;;;12.65;5.55;;;4.20;63.50;;;;;;6266686;28;20048;-75
2021/01/19 09:14:08;;;;;;;17.70;6.00;;;4.30;63.70;;;;;;6270182;28;20044;-75
2021/01/19 09:17:09;;;;;;;10.93;5.05;;;4.40;63.60;;;;;;6270904;28;20067;-75
2021/01/19 09:20:11;;;;;;;14.75;5.13;;;4.50;63.40;;;;;;6270602;28;20048;-77
2021/01/19 09:23:16;;;;;;;26.08;6.78;;;4.60;62.90;;;;;;6271088;28;20056;-75
2021/01/19 09:26:20;;;;;;;20.15;6.45;;;4.70;62.60;;;;;;6272018;28;20033;-76
2021/01/19 09:29:28;;;;;;;15.63;5.90;;;4.80;62.70;;;;;;6276488;28;20044;-76
2021/01/19 09:32:29;;;;;;;9.70;4.07;;;4.90;62.60;;;;;;6275252;28;20462;-76
2021/01/19 09:35:32;;;;;;;10.05;4.47;;;5.00;62.20;;;;;;6274500;28;20048;-76
2021/01/19 09:38:34;;;;;;;9.95;4.68;;;5.10;61.90;;;;;;6304975;28;20391;-76
2021/01/19 09:41:35;;;;;;;21.00;6.10;;;5.20;61.60;;;;;;6304557;28;20047;-75
2021/01/19 09:45:23;;;;;;;13.25;6.32;;;5.30;61.40;;;;;;6300276;28;20040;-76
2021/01/19 09:48:25;;;;;;;14.65;7.20;;;5.30;61.20;;;;;;6288932;28;20116;-75
2021/01/19 09:51:30;;;;;;;19.65;7.75;;;5.40;61.20;;;;;;6313935;28;20335;-76
2021/01/19 09:54:31;;;;;;;19.15;6.70;;;5.50;61.30;;;;;;6299403;28;20481;-75
2021/01/19 09:57:32;;;;;;;16.90;7.18;;;5.60;61.20;;;;;;6300566;28;20032;-75
2021/01/19 10:00:37;;;;;;;13.15;5.95;;;5.70;60.50;;;;;;6293452;28;20043;-77
2021/01/19 10:03:38;;;;;;;15.20;5.43;;;5.80;60.40;;;;;;6283073;28;20036;-77
2021/01/19 10:06:39;;;;;;;14.38;5.72;;;6.00;60.10;;;;;;6300117;28;20025;-76
2021/01/19 10:09:40;;;;;;;12.98;6.60;;;6.00;59.70;;;;;;6315402;28;20032;-76
2021/01/19 10:12:42;;;;;;;21.77;8.30;;;6.10;59.20;;;;;;6297900;28;20024;-76
2021/01/19 10:15:47;;;;;;;28.92;11.48;;;6.20;59.30;;;;;;6300707;28;20044;-77
2021/01/19 10:18:48;;;;;;;22.95;8.60;;;6.50;59.10;;;;;;6297794;28;20036;-76
2021/01/19 10:21:53;;;;;;;12.18;6.32;;;6.70;58.60;;;;;;6299595;28;20050;-76
2021/01/19 10:24:54;;;;;;;10.85;4.60;;;7.10;58.20;;;;;;6323522;28;20118;-75
2021/01/19 10:28:00;;;;;;;17.20;6.43;;;7.30;56.80;;;;;;6307127;28;20040;-77
2021/01/19 10:31:15;;;;;;;43.47;14.75;;;7.30;56.40;;;;;;6298856;28;20100;-77
2021/01/19 10:34:21;;;;;;;46.13;16.30;;;7.50;56.20;;;;;;6298553;28;20055;-77
2021/01/19 10:37:24;;;;;;;33.08;11.70;;;7.70;55.80;;;;;;6297891;28;20043;-77
2021/01/19 10:40:27;;;;;;;18.52;7.60;;;7.80;54.90;;;;;;6299694;28;20182;-76
2021/01/19 10:43:28;;;;;;;19.05;6.80;;;7.90;54.40;;;;;;6333009;28;20537;-76
2021/01/19 10:46:33;;;;;;;22.65;8.32;;;8.00;54.30;;;;;;6282415;28;20051;-78
2021/01/19 10:49:34;;;;;;;15.18;6.88;;;8.10;54.30;;;;;;6299808;28;20124;-76
2021/01/19 10:52:35;;;;;;;20.35;7.22;;;8.40;54.10;;;;;;6333828;28;20037;-77
2021/01/19 10:55:36;;;;;;;10.88;5.10;;;8.60;53.70;;;;;;6308331;28;20040;-78
2021/01/19 10:58:37;;;;;;;13.25;5.93;;;8.80;53.30;;;;;;6326363;27;20037;-75
2021/01/19 11:01:40;;;;;;;47.63;12.68;;;9.10;53.10;;;;;;6262085;28;20033;-77
2021/01/19 11:04:42;;;;;;;49.33;16.38;;;9.40;52.80;;;;;;6293377;28;20379;-77
2021/01/19 11:07:46;;;;;;;26.73;11.40;;;9.70;51.80;;;;;;6289457;28;20059;-77
2021/01/19 11:10:47;;;;;;;26.45;10.13;;;9.90;51.70;;;;;;6277035;28;20223;-78
2021/01/19 11:13:48;;;;;;;24.00;8.20;;;10.20;51.30;;;;;;6232459;28;20471;-77
2021/01/19 11:16:49;;;;;;;19.33;6.68;;;10.40;51.10;;;;;;6272497;28;20033;-76
2021/01/19 11:19:50;;;;;;;10.65;4.47;;;10.70;50.30;;;;;;6273706;28;20029;-79
2021/01/19 11:22:51;;;;;;;10.05;4.93;;;11.00;49.40;;;;;;6255964;28;20385;-78
2021/01/19 11:25:52;;;;;;;15.10;6.43;;;11.30;48.10;;;;;;6296482;28;20028;-78
2021/01/19 11:28:54;;;;;;;7.63;3.63;;;11.60;46.50;;;;;;6259508;28;20032;-77
2021/01/19 11:31:54;;;;;;;12.13;5.07;;;11.90;45.60;;;;;;6271985;28;20040;-76
2021/01/19 11:34:55;;;;;;;15.18;6.03;;;12.20;45.20;;;;;;6276838;28;20530;-77
2021/01/19 11:37:56;;;;;;;17.27;5.90;;;12.50;44.80;;;;;;6290732;28;20466;-76
2021/01/19 11:40:57;;;;;;;23.52;8.40;;;12.70;44.30;;;;;;6270779;28;20033;-76
2021/01/19 11:43:58;;;;;;;10.48;4.68;;;13.00;43.20;;;;;;6267800;28;20100;-77
2021/01/19 11:47:00;;;;;;;17.42;8.00;;;13.20;42.70;;;;;;6249196;28;20041;-76
2021/01/19 11:50:01;;;;;;;33.75;11.88;;;13.50;42.60;;;;;;6271837;28;20183;-77
2021/01/19 11:53:02;;;;;;;23.02;9.35;;;13.90;41.70;;;;;;6296537;28;20055;-77
2021/01/19 11:56:04;;;;;;;25.67;9.73;;;14.30;40.20;;;;;;6271046;28;20106;-78
2021/01/19 11:59:06;;;;;;;10.95;4.60;;;14.70;39.80;;;;;;6271705;28;20033;-76
2021/01/19 12:02:07;;;;;;;10.13;4.63;;;15.20;38.40;;;;;;6299024;28;20468;-76
2021/01/19 12:05:10;;;;;;;14.30;4.05;;;15.60;37.60;;;;;;6297838;28;20033;-76
2021/01/19 12:08:12;;;;;;;9.57;4.40;;;15.80;36.70;;;;;;6277859;28;20355;-77
2021/01/19 12:11:14;;;;;;;14.52;5.05;;;15.40;36.90;;;;;;6296953;28;20042;-77
2021/01/19 12:14:15;;;;;;;13.48;5.07;;;14.70;38.50;;;;;;6295216;28;20484;-75
2021/01/19 12:17:16;;;;;;;12.40;4.60;;;14.00;40.10;;;;;;6313585;28;20043;-76
2021/01/19 12:20:17;;;;;;;14.70;4.72;;;13.40;41.30;;;;;;6295961;28;20036;-77
2021/01/19 12:23:18;;;;;;;9.35;4.75;;;12.90;42.20;;;;;;6296084;28;20067;-77
2021/01/19 12:26:19;;;;;;;8.30;3.88;;;12.30;42.90;;;;;;6329960;28;20414;-77
2021/01/19 12:29:21;;;;;;;13.73;4.93;;;11.80;43.90;;;;;;6296705;28;20089;-78
2021/01/19 12:32:22;;;;;;;10.60;3.85;;;11.40;44.70;;;;;;6296537;28;20120;-76
2021/01/19 12:35:23;;;;;;;10.82;4.25;;;11.20;45.30;;;;;;6296866;28;20041;-76
2021/01/19 12:38:25;;;;;;;9.25;3.97;;;10.90;45.50;;;;;;6298359;28;20039;-76
2021/01/19 12:41:26;;;;;;;7.97;4.15;;;10.70;45.90;;;;;;6259596;28;20099;-77
2021/01/19 12:44:27;;;;;;;9.93;4.70;;;10.40;46.30;;;;;;6254978;28;20040;-76
2021/01/19 12:47:28;;;;;;;9.27;3.90;;;10.20;46.80;;;;;;6271432;28;20033;-77
2021/01/19 12:50:29;;;;;;;11.93;5.95;;;10.10;47.20;;;;;;6296297;28;20021;-76
2021/01/19 12:53:30;;;;;;;12.73;4.95;;;9.90;47.30;;;;;;6296731;28;20112;-76
2021/01/19 12:56:31;;;;;;;9.10;4.03;;;9.90;47.70;;;;;;6279577;28;20101;-76
2021/01/19 12:59:34;;;;;;;11.30;5.60;;;9.80;48.00;;;;;;6299713;28;20029;-75
2021/01/19 13:02:35;;;;;;;16.05;6.60;;;9.80;48.30;;;;;;6299115;28;20033;-76
2021/01/19 13:05:36;;;;;;;10.75;4.38;;;9.80;48.40;;;;;;6299173;28;20349;-76
2021/01/19 13:08:38;;;;;;;11.68;4.47;;;9.80;48.60;;;;;;6278545;28;20446;-76
2021/01/19 13:11:40;;;;;;;9.07;4.35;;;9.80;48.60;;;;;;6273396;28;20029;-76
2021/01/19 13:14:41;;;;;;;14.63;4.60;;;9.80;48.70;;;;;;6294764;28;20355;-76
2021/01/19 13:17:42;;;;;;;6.70;3.28;;;9.80;48.70;;;;;;6257964;28;20041;-77
2021/01/19 13:20:43;;;;;;;10.13;4.93;;;9.80;48.60;;;;;;6318768;28;20070;-76
2021/01/19 13:23:44;;;;;;;13.50;4.68;;;9.80;48.80;;;;;;6339404;28;20020;-76
2021/01/19 13:26:44;;;;;;;10.57;3.08;;;9.80;48.70;;;;;;6297257;28;20039;-76
2021/01/19 13:29:47;;;;;;;9.57;2.65;;;9.80;48.60;;;;;;6307464;28;20093;-76
2021/01/19 13:32:48;;;;;;;9.85;2.55;;;9.80;48.10;;;;;;6301782;28;20029;-77
2021/01/19 13:35:49;;;;;;;8.60;2.70;;;9.80;47.70;;;;;;6297177;28;20043;-77
2021/01/19 13:38:50;;;;;;;12.43;2.42;;;9.80;47.70;;;;;;6278009;28;20036;-76
2021/01/19 13:41:55;;;;;;;6.85;2.65;;;9.80;47.80;;;;;;6296018;28;20059;-76
2021/01/19 13:44:56;;;;;;;4.10;2.15;;;9.80;48.00;;;;;;6297023;28;20047;-76
2021/01/19 13:47:57;;;;;;;5.18;2.85;;;9.90;48.10;;;;;;6296304;28;20538;-75
2021/01/19 13:50:58;;;;;;;5.47;2.65;;;9.90;48.00;;;;;;6296494;28;20048;-76
2021/01/19 13:53:59;;;;;;;9.98;2.90;;;9.90;48.10;;;;;;6294937;28;20063;-76
2021/01/19 13:57:00;;;;;;;13.98;4.85;;;10.00;47.90;;;;;;6295178;28;20051;-76
2021/01/19 14:00:04;;;;;;;10.93;5.15;;;10.00;47.80;;;;;;6279726;28;20128;-76
2021/01/19 14:03:06;;;;;;;13.57;4.10;;;10.00;47.70;;;;;;6278497;28;20033;-76
2021/01/19 14:06:11;;;;;;;6.15;2.67;;;10.00;47.40;;;;;;6296335;28;20354;-76
2021/01/19 14:09:12;;;;;;;13.43;3.47;;;10.00;47.60;;;;;;6297072;28;20047;-76
2021/01/19 14:12:13;;;;;;;13.38;5.35;;;10.00;47.70;;;;;;6304908;28;20028;-76
2021/01/19 14:15:14;;;;;;;6.70;3.53;;;10.10;47.70;;;;;;6299382;28;20059;-77
2021/01/19 14:18:15;;;;;;;9.93;2.33;;;10.10;47.70;;;;;;6334534;28;20067;-76
2021/01/19 14:21:18;;;;;;;6.95;3.10;;;10.10;47.60;;;;;;6336505;28;20032;-76
2021/01/19 14:24:19;;;;;;;5.95;2.65;;;10.20;47.50;;;;;;6299941;28;20039;-77
2021/01/19 14:27:20;;;;;;;6.03;2.70;;;10.20;47.50;;;;;;6300791;28;20101;-73
2021/01/19 14:30:21;;;;;;;11.50;3.00;;;10.20;47.70;;;;;;6306060;28;20032;-75
2021/01/19 14:33:22;;;;;;;6.00;2.60;;;10.20;47.60;;;;;;6298569;28;20086;-74
2021/01/19 14:36:24;;;;;;;20.65;2.80;;;10.20;47.60;;;;;;6300302;28;20080;-76
2021/01/19 14:39:25;;;;;;;4.43;2.28;;;10.20;47.60;;;;;;6297993;28;20429;-78
2021/01/19 14:42:26;;;;;;;16.88;3.15;;;10.20;47.60;;;;;;6291414;28;20032;-77
2021/01/19 14:45:27;;;;;;;9.05;3.17;;;10.20;47.70;;;;;;6300366;28;20024;-77
2021/01/19 14:48:28;;;;;;;8.05;3.47;;;10.20;47.40;;;;;;6317846;28;20032;-76
2021/01/19 14:51:29;;;;;;;8.00;3.08;;;10.20;47.10;;;;;;6309135;28;20392;-75
2021/01/19 14:54:33;;;;;;;9.60;2.65;;;10.20;47.10;;;;;;6299523;28;21042;-76
2021/01/19 14:57:40;;;;;;;4.40;2.42;;;10.20;46.80;;;;;;6295477;28;20040;-76
2021/01/19 15:00:41;;;;;;;6.20;2.90;;;10.20;46.60;;;;;;6298413;28;20037;-77
2021/01/19 15:03:42;;;;;;;5.88;2.22;;;10.30;46.50;;;;;;6332022;28;20116;-76
2021/01/19 15:07:10;;;;;;;13.30;3.35;;;10.30;46.50;;;;;;6298680;28;20502;-76
2021/01/19 15:10:11;;;;;;;6.00;2.13;;;10.30;46.70;;;;;;6205846;28;20092;-78
2021/01/19 15:13:12;;;;;;;4.88;2.30;;;10.30;46.40;;;;;;6234155;28;20099;-78
2021/01/19 15:16:13;;;;;;;4.13;2.20;;;10.30;46.50;;;;;;6206164;28;20472;-77
2021/01/19 15:19:14;;;;;;;5.93;2.20;;;10.30;46.60;;;;;;6206230;28;20041;-77
2021/01/19 15:22:15;;;;;;;6.43;2.25;;;10.30;46.80;;;;;;6199210;28;20037;-78
2021/01/19 15:25:16;;;;;;;14.25;3.35;;;10.30;46.80;;;;;;6222007;28;20038;-76
2021/01/19 15:28:17;;;;;;;9.68;2.63;;;10.30;46.60;;;;;;6206461;28;20034;-78
2021/01/19 15:31:18;;;;;;;3.40;2.17;;;10.30;46.80;;;;;;6204655;28;20121;-77
2021/01/19 15:34:23;;;;;;;11.23;3.45;;;10.30;47.00;;;;;;6221876;28;20049;-77
2021/01/19 15:37:24;;;;;;;5.78;2.85;;;10.30;47.00;;;;;;6205969;28;20041;-77
2021/01/19 15:40:25;;;;;;;5.85;3.10;;;10.30;47.00;;;;;;6221831;28;20044;-76
2021/01/19 15:43:27;;;;;;;12.50;3.78;;;10.30;47.00;;;;;;6205953;28;20034;-77
2021/01/19 15:46:38;;;;;;;8.30;3.05;;;10.30;47.10;;;;;;6258093;28;20366;-77
2021/01/19 15:49:39;;;;;;;14.30;6.43;;;10.20;47.20;;;;;;6329309;28;20085;-79
2021/01/19 15:52:40;;;;;;;15.10;5.82;;;10.20;47.20;;;;;;6298321;28;20143;-77
2021/01/19 15:55:41;;;;;;;31.10;10.27;;;10.20;47.40;;;;;;6331671;28;20045;-77
2021/01/19 15:58:43;;;;;;;17.08;6.07;;;10.20;47.50;;;;;;6304371;28;20032;-77
2021/01/19 16:01:45;;;;;;;10.93;3.45;;;10.20;47.70;;;;;;6330538;28;20040;-78
2021/01/19 16:04:46;;;;;;;6.57;2.97;;;10.20;47.70;;;;;;6297266;28;20425;-76